createdAt,value
2023-04-09T00:02:18.597Z,12.35
2023-04-09T00:04:45.625Z,12.63
2023-04-09T00:07:12.561Z,12.88
2023-04-09T00:09:39.226Z,13.68
2023-04-09T00:12:06.464Z,13.10
2023-04-09T00:14:33.335Z,12.45
2023-04-09T00:17:00.173Z,12.35
2023-04-09T00:19:26.896Z,12.18
2023-04-09T00:21:53.650Z,12.63
2023-04-09T00:24:20.572Z,12.82
2023-04-09T00:26:47.302Z,12.57
2023-04-09T00:29:14.024Z,13.68
2023-04-09T00:31:40.819Z,11.25
2023-04-09T00:34:07.683Z,12.55
2023-04-09T00:36:34.338Z,11.60
2023-04-09T00:39:01.196Z,12.25
2023-04-09T00:41:28.290Z,11.70
2023-04-09T00:43:56.469Z,11.43
2023-04-09T00:46:23.147Z,11.38
2023-04-09T00:48:50.356Z,12.05
2023-04-09T00:51:17.657Z,11.50
2023-04-09T00:53:44.496Z,12.02
2023-04-09T00:56:12.411Z,12.10
2023-04-09T00:58:40.803Z,12.05
2023-04-09T01:01:07.505Z,12.63
2023-04-09T01:03:34.412Z,13.13
2023-04-09T01:06:22.472Z,12.65
2023-04-09T01:08:56.028Z,12.55
2023-04-09T01:11:36.114Z,11.88
2023-04-09T01:14:18.541Z,12.60
2023-04-09T01:16:47.834Z,12.15
2023-04-09T01:19:43.749Z,12.27
2023-04-09T01:22:42.739Z,12.35
2023-04-09T01:25:28.585Z,13.10
2023-04-09T01:28:06.791Z,13.85
2023-04-09T01:30:33.577Z,13.68
2023-04-09T01:33:00.680Z,14.27
2023-04-09T01:35:28.536Z,14.05
2023-04-09T01:37:55.889Z,14.02
2023-04-09T01:40:22.838Z,14.52
2023-04-09T01:42:49.950Z,14.45
2023-04-09T01:45:16.915Z,14.55
2023-04-09T01:47:44.203Z,14.45
2023-04-09T01:50:11.012Z,15.43
2023-04-09T01:52:37.810Z,15.30
2023-04-09T01:55:05.321Z,15.80
2023-04-09T01:57:32.291Z,15.80
2023-04-09T01:59:59.476Z,16.65
2023-04-09T02:02:31.148Z,16.45
2023-04-09T02:04:58.921Z,15.65
2023-04-09T02:07:32.970Z,16.73
2023-04-09T02:10:00.979Z,17.42
2023-04-09T02:12:29.365Z,17.50
2023-04-09T02:14:56.420Z,19.13
2023-04-09T02:17:24.559Z,19.38
2023-04-09T02:19:54.726Z,18.25
2023-04-09T02:22:21.540Z,20.27
2023-04-09T02:24:48.354Z,19.67
2023-04-09T02:27:15.128Z,20.25
2023-04-09T02:29:42.283Z,20.55
2023-04-09T02:32:09.226Z,19.38
2023-04-09T02:34:36.144Z,18.88
2023-04-09T02:37:03.267Z,19.48
2023-04-09T02:39:29.942Z,20.45
2023-04-09T02:41:57.902Z,19.00
2023-04-09T02:44:26.815Z,19.33
2023-04-09T02:46:53.937Z,19.92
2023-04-09T02:49:20.706Z,20.95
2023-04-09T02:51:47.453Z,20.65
2023-04-09T02:54:14.179Z,21.73
2023-04-09T02:56:41.296Z,21.38
2023-04-09T02:59:08.109Z,22.08
2023-04-09T03:01:35.774Z,22.30
2023-04-09T03:04:03.015Z,23.33
2023-04-09T03:06:29.895Z,23.25
2023-04-09T03:08:57.571Z,25.10
2023-04-09T03:11:25.227Z,24.33
2023-04-09T03:13:52.290Z,24.92
2023-04-09T03:16:19.217Z,24.75
2023-04-09T03:18:45.960Z,24.63
2023-04-09T03:21:14.892Z,24.33
2023-04-09T03:23:47.039Z,25.17
2023-04-09T03:26:13.982Z,25.73
2023-04-09T03:28:47.150Z,25.75
2023-04-09T03:31:14.191Z,23.65
2023-04-09T03:33:42.296Z,26.83
2023-04-09T03:36:09.953Z,27.02
2023-04-09T03:39:08.762Z,27.77
2023-04-09T03:41:38.976Z,27.30
2023-04-09T03:44:10.440Z,28.77
2023-04-09T03:46:47.720Z,28.52
2023-04-09T03:49:17.992Z,27.73
2023-04-09T03:51:45.544Z,28.63
2023-04-09T03:54:13.086Z,28.42
2023-04-09T03:56:41.097Z,28.17
2023-04-09T03:59:12.376Z,27.17
2023-04-09T04:01:42.486Z,27.77
2023-04-09T04:04:09.962Z,28.13
2023-04-09T04:06:53.140Z,27.83
2023-04-09T04:09:27.203Z,27.70
2023-04-09T04:11:58.895Z,27.45
2023-04-09T04:14:39.385Z,28.17
2023-04-09T04:17:16.921Z,26.98
2023-04-09T04:19:44.045Z,27.55
2023-04-09T04:22:10.859Z,27.92
2023-04-09T04:24:41.534Z,25.98
2023-04-09T04:27:08.552Z,24.50
2023-04-09T04:29:37.629Z,24.83
2023-04-09T04:32:11.541Z,25.00
2023-04-09T04:34:38.332Z,25.08
2023-04-09T04:37:18.977Z,25.77
2023-04-09T04:39:46.584Z,27.05
2023-04-09T04:42:16.554Z,25.30
2023-04-09T04:44:44.378Z,25.23
2023-04-09T04:47:19.950Z,26.05
2023-04-09T04:49:46.929Z,24.70
2023-04-09T04:52:13.943Z,25.17
2023-04-09T04:54:45.050Z,26.42
2023-04-09T04:57:16.938Z,25.60
2023-04-09T04:59:44.089Z,25.00
2023-04-09T05:02:13.106Z,25.33
2023-04-09T05:04:51.706Z,26.55
2023-04-09T05:07:21.925Z,26.00
2023-04-09T05:09:51.725Z,26.40
2023-04-09T05:12:19.356Z,26.17
2023-04-09T05:14:50.396Z,25.98
2023-04-09T05:17:17.209Z,27.35
2023-04-09T05:19:50.478Z,26.98
2023-04-09T05:22:18.579Z,27.58
2023-04-09T05:24:46.522Z,28.80
2023-04-09T05:27:14.270Z,28.35
2023-04-09T05:29:41.528Z,26.75
2023-04-09T05:32:09.552Z,26.20
2023-04-09T05:34:39.334Z,27.63
2023-04-09T05:37:06.092Z,27.60
2023-04-09T05:39:34.120Z,26.23
2023-04-09T05:42:01.762Z,27.38
2023-04-09T05:44:39.486Z,26.58
2023-04-09T05:47:11.587Z,26.10
2023-04-09T05:49:47.596Z,28.40
2023-04-09T05:52:16.893Z,28.52
2023-04-09T05:54:43.847Z,26.88
2023-04-09T05:57:12.099Z,24.08
2023-04-09T05:59:43.056Z,22.30
2023-04-09T06:02:09.942Z,21.27
2023-04-09T06:04:36.956Z,19.20
2023-04-09T06:07:03.796Z,18.85
2023-04-09T06:09:30.700Z,18.48
2023-04-09T06:11:57.866Z,17.00
2023-04-09T06:14:24.817Z,17.00
2023-04-09T06:16:51.561Z,16.42
2023-04-09T06:19:18.757Z,17.30
2023-04-09T06:21:45.796Z,19.15
2023-04-09T06:24:12.824Z,18.25
2023-04-09T06:26:39.660Z,19.45
2023-04-09T06:29:07.075Z,18.30
2023-04-09T06:31:33.893Z,15.80
2023-04-09T06:34:00.680Z,15.70
2023-04-09T06:36:27.973Z,15.18
2023-04-09T06:38:54.756Z,14.80
2023-04-09T06:41:21.941Z,14.63
2023-04-09T06:43:48.875Z,14.98
2023-04-09T06:46:17.637Z,15.95
2023-04-09T06:48:44.851Z,15.55
2023-04-09T06:51:11.961Z,16.83
2023-04-09T06:53:39.457Z,16.65
2023-04-09T06:56:07.231Z,17.98
2023-04-09T06:58:34.660Z,17.45
2023-04-09T07:01:02.509Z,17.83
2023-04-09T07:03:30.037Z,18.52
2023-04-09T07:05:57.935Z,17.58
2023-04-09T07:08:25.132Z,17.52
2023-04-09T07:10:51.838Z,17.55
2023-04-09T07:13:18.586Z,17.38
2023-04-09T07:15:45.449Z,16.83
2023-04-09T07:18:12.233Z,17.23
2023-04-09T07:20:39.498Z,17.40
2023-04-09T07:23:06.564Z,19.30
2023-04-09T07:25:34.033Z,18.92
2023-04-09T07:28:00.786Z,19.15
2023-04-09T07:30:27.670Z,18.30
2023-04-09T07:32:55.272Z,17.25
2023-04-09T07:35:22.307Z,16.52
2023-04-09T07:37:49.199Z,14.50
2023-04-09T07:40:16.490Z,12.05
2023-04-09T07:42:43.719Z,12.23
2023-04-09T07:45:10.522Z,12.27
2023-04-09T07:47:38.389Z,11.63
2023-04-09T07:50:05.592Z,11.85
2023-04-09T07:52:34.112Z,12.00
2023-04-09T07:55:01.371Z,11.90
2023-04-09T07:57:28.714Z,11.10
2023-04-09T07:59:55.638Z,10.48
2023-04-09T08:02:23.992Z,11.52
2023-04-09T08:04:51.264Z,11.07
2023-04-09T08:07:18.303Z,11.75
2023-04-09T08:09:45.290Z,12.68
2023-04-09T08:12:12.216Z,10.57
2023-04-09T08:14:38.984Z,11.32
2023-04-09T08:17:05.964Z,10.38
2023-04-09T08:19:32.709Z,9.75
2023-04-09T08:21:59.452Z,10.65
2023-04-09T08:24:26.249Z,12.25
2023-04-09T08:26:53.117Z,9.90
2023-04-09T08:29:19.924Z,9.07
2023-04-09T08:31:46.781Z,9.55
2023-04-09T08:34:15.235Z,10.27
2023-04-09T08:36:47.711Z,9.75
2023-04-09T08:39:21.421Z,9.40
2023-04-09T08:42:01.721Z,10.32
2023-04-09T08:44:31.782Z,9.85
2023-04-09T08:47:06.460Z,9.57
2023-04-09T08:52:06.563Z,9.10
2023-04-09T08:54:34.515Z,9.43
2023-04-09T08:57:04.811Z,8.65
2023-04-09T08:59:40.184Z,8.90
2023-04-09T09:07:16.861Z,8.30
2023-04-09T09:09:59.880Z,9.20
2023-04-09T09:12:37.105Z,9.10
2023-04-09T09:15:04.586Z,9.73
2023-04-09T09:17:31.804Z,9.30
2023-04-09T09:19:59.099Z,8.70
2023-04-09T09:22:28.963Z,9.95
2023-04-09T09:25:04.176Z,9.55
2023-04-09T09:27:37.064Z,8.32
2023-04-09T09:30:10.269Z,8.93
2023-04-09T09:32:38.695Z,9.52
2023-04-09T09:35:12.927Z,8.50
2023-04-09T09:37:46.286Z,9.60
2023-04-09T09:40:27.065Z,9.35
2023-04-09T09:43:03.386Z,8.43
2023-04-09T09:45:32.625Z,9.55
2023-04-09T09:48:04.445Z,8.43
2023-04-09T09:50:37.371Z,9.20
2023-04-09T09:53:06.067Z,10.10
2023-04-09T09:55:36.252Z,9.48
2023-04-09T09:58:12.344Z,9.40
2023-04-09T10:00:43.589Z,7.82
2023-04-09T10:03:40.779Z,9.45
2023-04-09T10:06:15.394Z,9.25
2023-04-09T10:08:45.560Z,9.43
2023-04-09T10:11:13.122Z,8.43
2023-04-09T10:13:55.536Z,8.45
2023-04-09T10:16:30.225Z,7.35
2023-04-09T10:19:00.611Z,6.55
2023-04-09T10:24:24.468Z,8.02
2023-04-09T10:26:59.805Z,7.63
2023-04-09T10:29:32.280Z,6.50
2023-04-09T10:32:06.503Z,7.18
2023-04-09T10:34:39.393Z,8.18
2023-04-09T10:37:28.096Z,8.57
2023-04-09T10:39:56.540Z,8.77
2023-04-09T10:42:27.219Z,7.47
2023-04-09T10:45:06.702Z,7.93
2023-04-09T10:47:40.809Z,7.93
2023-04-09T10:53:05.468Z,6.93
2023-04-09T10:55:37.059Z,7.38
2023-04-09T10:58:04.890Z,8.45
2023-04-09T11:00:31.971Z,8.50
2023-04-09T11:03:05.927Z,7.65
2023-04-09T11:05:34.735Z,8.10
2023-04-09T11:08:04.711Z,7.82
2023-04-09T11:10:34.273Z,7.78
2023-04-09T11:13:01.759Z,7.55
2023-04-09T11:15:28.726Z,7.53
2023-04-09T11:17:55.698Z,6.65
2023-04-09T11:20:24.181Z,7.50
2023-04-09T11:22:51.669Z,7.55
2023-04-09T11:25:22.350Z,7.68
2023-04-09T11:27:49.452Z,8.00
2023-04-09T11:30:16.524Z,6.93
2023-04-09T11:32:43.518Z,7.43
2023-04-09T11:35:18.266Z,6.80
2023-04-09T11:37:45.432Z,7.32
2023-04-09T11:40:16.876Z,7.72
2023-04-09T11:42:44.274Z,7.38
2023-04-09T11:45:17.216Z,7.85
2023-04-09T11:47:44.601Z,7.80
2023-04-09T11:50:12.260Z,8.20
2023-04-09T11:52:39.891Z,8.48
2023-04-09T11:55:07.302Z,7.65
2023-04-09T11:57:39.714Z,8.50
2023-04-09T12:00:14.227Z,8.32
2023-04-09T12:02:48.074Z,8.65
2023-04-09T12:05:25.429Z,7.80
2023-04-09T12:10:26.618Z,8.35
2023-04-09T12:12:53.327Z,8.57
2023-04-09T12:15:24.427Z,8.10
2023-04-09T12:17:52.020Z,7.97
2023-04-09T12:20:28.941Z,7.93
2023-04-09T12:22:56.134Z,7.70
2023-04-09T12:25:22.956Z,7.75
2023-04-09T12:27:49.732Z,7.50
2023-04-09T12:30:16.730Z,6.60
2023-04-09T12:32:45.873Z,6.68
2023-04-09T12:35:13.737Z,7.68
2023-04-09T12:37:40.478Z,7.28
2023-04-09T12:40:07.684Z,7.65
2023-04-09T12:42:34.776Z,7.75
2023-04-09T12:45:01.880Z,8.13
2023-04-09T12:47:29.086Z,7.80
2023-04-09T12:49:55.913Z,8.07
2023-04-09T12:52:24.307Z,8.35
2023-04-09T12:54:52.274Z,7.45
2023-04-09T12:57:19.648Z,7.60
2023-04-09T12:59:46.417Z,7.50
2023-04-09T13:02:13.324Z,6.50
2023-04-09T13:04:40.266Z,6.93
2023-04-09T13:07:07.129Z,6.95
2023-04-09T13:09:35.322Z,7.30
2023-04-09T13:12:02.427Z,6.63
2023-04-09T13:14:29.265Z,7.57
2023-04-09T13:16:56.277Z,7.10
2023-04-09T13:19:23.047Z,6.95
2023-04-09T13:21:49.855Z,7.25
2023-04-09T13:24:16.735Z,6.95
2023-04-09T13:26:43.676Z,7.05
2023-04-09T13:29:10.408Z,7.00
2023-04-09T13:31:37.279Z,6.72
2023-04-09T13:34:04.089Z,7.13
2023-04-09T13:36:31.672Z,7.68
2023-04-09T13:39:04.190Z,6.70
2023-04-09T13:41:34.242Z,6.45
2023-04-09T13:44:01.479Z,7.88
2023-04-09T13:46:28.345Z,6.82
2023-04-09T13:48:55.382Z,6.50
2023-04-09T13:51:22.446Z,7.07
2023-04-09T13:53:49.548Z,6.55
2023-04-09T13:56:16.796Z,5.60
2023-04-09T13:58:43.813Z,5.90
2023-04-09T14:01:11.516Z,6.50
2023-04-09T14:03:41.186Z,7.00
2023-04-09T14:06:10.891Z,5.88
2023-04-09T14:08:37.588Z,6.30
2023-04-09T14:11:04.386Z,6.22
2023-04-09T14:13:31.225Z,6.28
2023-04-09T14:16:00.329Z,5.47
2023-04-09T14:18:27.350Z,6.30
2023-04-09T14:20:54.415Z,6.10
2023-04-09T14:23:21.469Z,5.47
2023-04-09T14:25:48.482Z,5.50
2023-04-09T14:28:15.319Z,5.60
2023-04-09T14:30:42.032Z,5.30
2023-04-09T14:33:08.803Z,5.38
2023-04-09T14:35:35.618Z,5.07
2023-04-09T14:38:04.441Z,5.38
2023-04-09T14:40:32.046Z,5.60
2023-04-09T14:42:59.341Z,5.38
2023-04-09T14:45:26.470Z,5.32
2023-04-09T14:47:55.005Z,4.78
2023-04-09T14:50:21.956Z,5.28
2023-04-09T14:52:48.916Z,4.95
2023-04-09T14:55:16.069Z,5.40
2023-04-09T14:57:43.196Z,5.10
2023-04-09T15:00:11.460Z,5.70
2023-04-09T15:02:39.237Z,4.78
2023-04-09T15:05:06.601Z,5.38
2023-04-09T15:07:33.469Z,4.68
2023-04-09T15:10:00.336Z,4.80
2023-04-09T15:12:36.431Z,4.18
2023-04-09T15:15:05.739Z,4.55
2023-04-09T15:17:32.503Z,4.60
2023-04-09T15:19:59.802Z,4.03
2023-04-09T15:22:26.787Z,4.32
2023-04-09T15:24:53.540Z,4.43
2023-04-09T15:27:20.469Z,4.50
2023-04-09T15:29:47.297Z,4.57
2023-04-09T15:32:13.999Z,3.88
2023-04-09T15:34:40.810Z,4.00
2023-04-09T15:37:07.533Z,4.07
2023-04-09T15:39:35.108Z,3.92
2023-04-09T15:42:02.274Z,3.65
2023-04-09T15:44:29.089Z,3.70
2023-04-09T15:46:56.148Z,3.85
2023-04-09T15:49:23.093Z,4.40
2023-04-09T15:51:49.916Z,4.13
2023-04-09T15:54:16.764Z,3.75
2023-04-09T15:56:43.444Z,4.13
2023-04-09T15:59:10.866Z,3.38
2023-04-09T16:01:37.805Z,3.30
2023-04-09T16:04:04.915Z,3.08
2023-04-09T16:06:32.435Z,2.85
2023-04-09T16:08:59.143Z,2.83
2023-04-09T16:11:26.242Z,2.88
2023-04-09T16:13:53.264Z,2.60
2023-04-09T16:16:20.721Z,2.58
2023-04-09T16:18:47.670Z,2.67
2023-04-09T16:21:14.959Z,2.90
2023-04-09T16:23:42.034Z,2.60
2023-04-09T16:26:09.816Z,7.97
2023-04-09T16:28:36.571Z,2.60
2023-04-09T16:31:03.371Z,2.55
2023-04-09T16:33:30.943Z,2.47
2023-04-09T16:35:57.971Z,2.58
2023-04-09T16:38:27.531Z,2.38
2023-04-09T16:40:54.545Z,2.63
2023-04-09T16:43:21.421Z,2.60
2023-04-09T16:45:48.180Z,2.17
2023-04-09T16:48:14.972Z,2.30
2023-04-09T16:50:42.890Z,2.05
2023-04-09T16:53:09.819Z,2.15
2023-04-09T16:55:38.014Z,2.10
2023-04-09T16:58:08.216Z,1.98
2023-04-09T17:00:35.546Z,2.20
2023-04-09T17:03:02.781Z,1.90
2023-04-09T17:05:29.798Z,2.53
2023-04-09T17:07:56.482Z,2.20
2023-04-09T17:10:23.181Z,2.75
2023-04-09T17:12:50.640Z,2.50
2023-04-09T17:15:17.930Z,3.10
2023-04-09T17:17:45.845Z,2.47
2023-04-09T17:20:13.097Z,2.70
2023-04-09T17:22:40.094Z,2.83
2023-04-09T17:25:07.069Z,2.30
2023-04-09T17:27:33.824Z,2.83
2023-04-09T17:30:00.687Z,3.03
2023-04-09T17:32:27.697Z,2.90
2023-04-09T17:34:54.466Z,2.67
2023-04-09T17:37:21.272Z,2.67
2023-04-09T17:39:48.064Z,2.95
2023-04-09T17:42:14.938Z,2.83
2023-04-09T17:44:43.756Z,2.70
2023-04-09T17:47:12.293Z,3.10
2023-04-09T17:49:39.581Z,2.58
2023-04-09T17:52:06.472Z,2.67
2023-04-09T17:54:34.521Z,2.53
2023-04-09T17:57:02.475Z,2.50
2023-04-09T17:59:29.430Z,3.13
2023-04-09T18:01:56.769Z,2.72
2023-04-09T18:04:24.353Z,2.80
2023-04-09T18:06:51.569Z,2.75
2023-04-09T18:09:18.842Z,2.60
2023-04-09T18:11:45.795Z,2.40
2023-04-09T18:14:12.531Z,2.78
2023-04-09T18:16:39.657Z,2.80
2023-04-09T18:19:06.672Z,3.05
2023-04-09T18:21:33.736Z,3.20
2023-04-09T18:24:00.669Z,2.70
2023-04-09T18:26:27.323Z,2.78
2023-04-09T18:28:54.108Z,3.20
2023-04-09T18:31:21.302Z,3.60
2023-04-09T18:33:48.037Z,2.90
2023-04-09T18:36:14.808Z,3.03
2023-04-09T18:38:41.877Z,3.13
2023-04-09T18:41:09.287Z,3.20
2023-04-09T18:43:36.049Z,2.90
2023-04-09T18:46:02.772Z,2.90
2023-04-09T18:48:29.487Z,2.92
2023-04-09T18:50:56.254Z,2.70
2023-04-09T18:53:22.999Z,2.67
2023-04-09T18:55:49.712Z,2.42
2023-04-09T18:58:17.573Z,3.70
2023-04-09T19:00:44.685Z,2.58
2023-04-09T19:03:12.200Z,2.40
2023-04-09T19:05:39.741Z,2.47
2023-04-09T19:08:06.954Z,2.72
2023-04-09T19:10:33.842Z,2.70
2023-04-09T19:13:00.716Z,2.80
2023-04-09T19:15:29.322Z,3.20
2023-04-09T19:17:56.959Z,3.38
2023-04-09T19:20:24.053Z,3.40
2023-04-09T19:22:52.004Z,3.10
2023-04-09T19:25:19.326Z,3.67
2023-04-09T19:27:46.519Z,3.28
2023-04-09T19:30:13.376Z,3.92
2023-04-09T19:32:41.351Z,4.00
2023-04-09T19:35:08.456Z,3.22
2023-04-09T19:37:35.217Z,3.90
2023-04-09T19:40:04.587Z,3.47
2023-04-09T19:42:32.911Z,3.72
2023-04-09T19:45:02.481Z,3.70
2023-04-09T19:47:29.372Z,3.10
2023-04-09T19:49:56.192Z,4.03
2023-04-09T19:52:23.062Z,2.97
2023-04-09T19:54:53.298Z,3.13
2023-04-09T19:57:20.462Z,3.03
2023-04-09T19:59:49.670Z,2.90
2023-04-09T20:02:17.218Z,2.85
2023-04-09T20:04:44.181Z,2.92
2023-04-09T20:07:10.925Z,3.40
2023-04-09T20:09:41.379Z,3.20
2023-04-09T20:12:08.864Z,3.17
2023-04-09T20:14:38.178Z,2.90
2023-04-09T20:17:05.864Z,3.70
2023-04-09T20:19:33.115Z,3.00
2023-04-09T20:22:00.445Z,3.50
2023-04-09T20:24:28.286Z,3.63
2023-04-09T20:26:56.134Z,3.63
2023-04-09T20:29:23.025Z,3.50
2023-04-09T20:31:49.878Z,3.20
2023-04-09T20:34:16.806Z,3.03
2023-04-09T20:36:44.051Z,3.33
2023-04-09T20:39:11.679Z,2.90
2023-04-09T20:41:38.496Z,4.60
2023-04-09T20:44:05.980Z,2.85
2023-04-09T20:46:32.690Z,3.13
2023-04-09T20:49:00.805Z,3.03
2023-04-09T20:51:28.846Z,3.15
2023-04-09T20:53:55.545Z,3.60
2023-04-09T20:56:23.020Z,3.45
2023-04-09T20:58:50.066Z,6.40
2023-04-09T21:01:17.153Z,5.80
2023-04-09T21:03:44.681Z,6.40
2023-04-09T21:06:11.588Z,3.92
2023-04-09T21:08:42.642Z,3.13
2023-04-09T21:11:09.869Z,4.35
2023-04-09T21:13:51.052Z,3.47
2023-04-09T21:16:21.152Z,3.42
2023-04-09T21:18:48.930Z,3.60
2023-04-09T21:21:16.167Z,4.10
2023-04-09T21:23:43.440Z,3.17
2023-04-09T21:26:11.496Z,4.03
2023-04-09T21:28:38.263Z,3.42
2023-04-09T21:31:05.378Z,4.80
2023-04-09T21:33:32.168Z,4.05
2023-04-09T21:35:58.873Z,3.55
2023-04-09T21:38:26.111Z,4.50
2023-04-09T21:40:52.804Z,4.13
2023-04-09T21:43:19.683Z,4.40
2023-04-09T21:45:46.676Z,4.60
2023-04-09T21:48:13.734Z,4.85
2023-04-09T21:50:40.605Z,4.45
2023-04-09T21:53:08.156Z,4.82
2023-04-09T21:55:37.280Z,5.03
2023-04-09T21:58:04.350Z,5.30
2023-04-09T22:00:32.415Z,4.93
2023-04-09T22:03:01.674Z,5.20
2023-04-09T22:05:28.879Z,4.78
2023-04-09T22:07:56.053Z,5.25
2023-04-09T22:10:23.135Z,4.75
2023-04-09T22:12:50.424Z,5.38
2023-04-09T22:15:17.163Z,5.20
2023-04-09T22:17:44.036Z,5.07
2023-04-09T22:20:11.749Z,4.85
2023-04-09T22:22:38.779Z,5.43
2023-04-09T22:25:07.033Z,4.40
2023-04-09T22:27:34.046Z,5.10
2023-04-09T22:30:00.826Z,4.65
2023-04-09T22:32:27.867Z,4.72
2023-04-09T22:34:54.716Z,5.78
2023-04-09T22:37:21.667Z,4.97
2023-04-09T22:39:48.765Z,5.00
2023-04-09T22:42:15.751Z,5.10
2023-04-09T22:44:42.564Z,5.30
2023-04-09T22:47:09.388Z,5.13
2023-04-09T22:49:36.843Z,4.95
2023-04-09T22:52:03.514Z,5.30
2023-04-09T22:54:30.565Z,4.75
2023-04-09T22:56:57.947Z,4.95
2023-04-09T22:59:33.790Z,5.22
2023-04-09T23:02:07.018Z,5.68
2023-04-09T23:04:34.989Z,6.47
2023-04-09T23:07:02.579Z,5.47
2023-04-09T23:09:31.014Z,5.63
2023-04-09T23:11:58.016Z,5.50
2023-04-09T23:14:25.336Z,6.03
2023-04-09T23:16:52.128Z,5.90
2023-04-09T23:19:18.912Z,5.10
2023-04-09T23:21:46.091Z,6.20
2023-04-09T23:24:13.616Z,5.30
2023-04-09T23:26:40.811Z,5.88
2023-04-09T23:29:07.529Z,5.38
2023-04-09T23:31:34.324Z,5.53
2023-04-09T23:34:01.439Z,5.70
2023-04-09T23:36:28.943Z,6.00
2023-04-09T23:38:55.724Z,5.28
2023-04-09T23:41:22.486Z,5.70
2023-04-09T23:43:49.295Z,5.85
2023-04-09T23:46:16.342Z,5.50
2023-04-09T23:48:43.175Z,5.53
2023-04-09T23:51:09.908Z,5.95
2023-04-09T23:53:36.653Z,5.68
2023-04-09T23:56:04.534Z,5.30
2023-04-09T23:58:33.356Z,5.65
